sensor_id;sensor_type;location;lat;lon;timestamp;P1;durP1;ratioP1;P2;durP2;ratioP2
33162;SDS011;29282;45.656;11.302;2024-02-04T00:00:34;10.10;;;7.72;;
33162;SDS011;29282;45.656;11.302;2024-02-04T00:03:00;12.10;;;7.82;;
33162;SDS011;29282;45.656;11.302;2024-02-04T00:05:25;10.00;;;7.78;;
33162;SDS011;29282;45.656;11.302;2024-02-04T00:07:51;9.15;;;7.45;;
33162;SDS011;29282;45.656;11.302;2024-02-04T00:10:16;11.60;;;8.30;;
33162;SDS011;29282;45.656;11.302;2024-02-04T00:12:43;11.48;;;7.45;;
33162;SDS011;29282;45.656;11.302;2024-02-04T00:15:09;10.13;;;7.70;;
33162;SDS011;29282;45.656;11.302;2024-02-04T00:17:38;11.02;;;7.63;;
33162;SDS011;29282;45.656;11.302;2024-02-04T00:20:03;8.32;;;7.13;;
33162;SDS011;29282;45.656;11.302;2024-02-04T00:22:32;10.65;;;7.85;;
33162;SDS011;29282;45.656;11.302;2024-02-04T00:24:59;13.00;;;7.55;;
33162;SDS011;29282;45.656;11.302;2024-02-04T00:27:30;13.50;;;8.00;;
33162;SDS011;29282;45.656;11.302;2024-02-04T00:29:56;9.13;;;7.47;;
33162;SDS011;29282;45.656;11.302;2024-02-04T00:32:23;9.93;;;7.80;;
33162;SDS011;29282;45.656;11.302;2024-02-04T00:34:48;10.43;;;7.78;;
33162;SDS011;29282;45.656;11.302;2024-02-04T00:37:14;11.60;;;7.93;;
33162;SDS011;29282;45.656;11.302;2024-02-04T00:39:39;8.60;;;7.22;;
33162;SDS011;29282;45.656;11.302;2024-02-04T00:42:04;9.52;;;7.13;;
33162;SDS011;29282;45.656;11.302;2024-02-04T00:44:30;10.23;;;7.60;;
33162;SDS011;29282;45.656;11.302;2024-02-04T00:46:58;10.38;;;7.20;;
33162;SDS011;29282;45.656;11.302;2024-02-04T00:49:23;8.05;;;7.03;;
33162;SDS011;29282;45.656;11.302;2024-02-04T00:51:51;9.93;;;7.07;;
33162;SDS011;29282;45.656;11.302;2024-02-04T00:54:17;7.82;;;6.95;;
33162;SDS011;29282;45.656;11.302;2024-02-04T00:56:42;9.23;;;6.95;;
33162;SDS011;29282;45.656;11.302;2024-02-04T00:59:08;8.70;;;7.05;;
33162;SDS011;29282;45.656;11.302;2024-02-04T01:01:33;9.57;;;7.25;;
33162;SDS011;29282;45.656;11.302;2024-02-04T01:03:59;7.93;;;6.80;;
33162;SDS011;29282;45.656;11.302;2024-02-04T01:06:24;9.55;;;7.38;;
33162;SDS011;29282;45.656;11.302;2024-02-04T01:08:50;9.73;;;7.00;;
33162;SDS011;29282;45.656;11.302;2024-02-04T01:11:16;9.05;;;7.32;;
33162;SDS011;29282;45.656;11.302;2024-02-04T01:13:41;8.82;;;6.63;;
33162;SDS011;29282;45.656;11.302;2024-02-04T01:16:07;9.20;;;7.55;;
33162;SDS011;29282;45.656;11.302;2024-02-04T01:18:32;7.70;;;6.60;;
33162;SDS011;29282;45.656;11.302;2024-02-04T01:21:01;8.70;;;6.95;;
33162;SDS011;29282;45.656;11.302;2024-02-04T01:23:26;10.05;;;6.97;;
33162;SDS011;29282;45.656;11.302;2024-02-04T01:25:52;8.57;;;7.13;;
33162;SDS011;29282;45.656;11.302;2024-02-04T01:28:20;8.45;;;6.97;;
33162;SDS011;29282;45.656;11.302;2024-02-04T01:30:46;9.13;;;7.22;;
33162;SDS011;29282;45.656;11.302;2024-02-04T01:33:11;8.57;;;6.97;;
33162;SDS011;29282;45.656;11.302;2024-02-04T01:35:37;9.45;;;7.38;;
33162;SDS011;29282;45.656;11.302;2024-02-04T01:38:02;9.25;;;7.13;;
33162;SDS011;29282;45.656;11.302;2024-02-04T01:40:28;7.80;;;6.85;;
33162;SDS011;29282;45.656;11.302;2024-02-04T01:42:53;8.82;;;7.03;;
33162;SDS011;29282;45.656;11.302;2024-02-04T01:45:19;8.63;;;6.93;;
33162;SDS011;29282;45.656;11.302;2024-02-04T01:47:44;9.00;;;7.05;;
33162;SDS011;29282;45.656;11.302;2024-02-04T01:50:10;9.85;;;7.30;;
33162;SDS011;29282;45.656;11.302;2024-02-04T01:52:36;8.68;;;6.72;;
33162;SDS011;29282;45.656;11.302;2024-02-04T01:55:07;7.88;;;6.72;;
33162;SDS011;29282;45.656;11.302;2024-02-04T01:57:33;8.90;;;6.90;;
33162;SDS011;29282;45.656;11.302;2024-02-04T02:00:02;8.23;;;6.85;;
33162;SDS011;29282;45.656;11.302;2024-02-04T02:02:34;7.32;;;6.30;;
33162;SDS011;29282;45.656;11.302;2024-02-04T02:05:03;9.98;;;6.38;;
33162;SDS011;29282;45.656;11.302;2024-02-04T02:07:30;8.02;;;6.63;;
33162;SDS011;29282;45.656;11.302;2024-02-04T02:09:56;8.15;;;6.60;;
33162;SDS011;29282;45.656;11.302;2024-02-04T02:12:30;7.43;;;6.60;;
33162;SDS011;29282;45.656;11.302;2024-02-04T02:15:11;8.27;;;6.45;;
33162;SDS011;29282;45.656;11.302;2024-02-04T02:23:21;7.68;;;6.63;;
33162;SDS011;29282;45.656;11.302;2024-02-04T02:25:54;8.82;;;6.80;;
33162;SDS011;29282;45.656;11.302;2024-02-04T02:28:21;9.18;;;6.80;;
33162;SDS011;29282;45.656;11.302;2024-02-04T02:30:46;7.55;;;6.22;;
33162;SDS011;29282;45.656;11.302;2024-02-04T02:33:12;8.18;;;6.85;;
33162;SDS011;29282;45.656;11.302;2024-02-04T02:35:38;6.90;;;6.20;;
33162;SDS011;29282;45.656;11.302;2024-02-04T02:38:21;8.35;;;6.70;;
33162;SDS011;29282;45.656;11.302;2024-02-04T02:40:48;7.43;;;6.45;;
33162;SDS011;29282;45.656;11.302;2024-02-04T02:43:18;6.97;;;5.97;;
33162;SDS011;29282;45.656;11.302;2024-02-04T02:45:44;9.68;;;6.32;;
33162;SDS011;29282;45.656;11.302;2024-02-04T02:48:10;10.25;;;6.50;;
33162;SDS011;29282;45.656;11.302;2024-02-04T02:50:37;8.55;;;6.57;;
33162;SDS011;29282;45.656;11.302;2024-02-04T02:53:03;6.47;;;5.85;;
33162;SDS011;29282;45.656;11.302;2024-02-04T02:55:29;7.78;;;6.13;;
33162;SDS011;29282;45.656;11.302;2024-02-04T02:57:54;6.43;;;5.72;;
33162;SDS011;29282;45.656;11.302;2024-02-04T03:00:20;8.02;;;6.47;;
33162;SDS011;29282;45.656;11.302;2024-02-04T03:02:46;7.55;;;6.10;;
33162;SDS011;29282;45.656;11.302;2024-02-04T03:05:12;6.72;;;5.75;;
33162;SDS011;29282;45.656;11.302;2024-02-04T03:07:38;6.72;;;5.88;;
33162;SDS011;29282;45.656;11.302;2024-02-04T03:10:03;7.45;;;6.20;;
33162;SDS011;29282;45.656;11.302;2024-02-04T03:12:29;8.27;;;6.85;;
33162;SDS011;29282;45.656;11.302;2024-02-04T03:14:54;8.05;;;6.80;;
33162;SDS011;29282;45.656;11.302;2024-02-04T03:17:20;7.30;;;5.72;;
33162;SDS011;29282;45.656;11.302;2024-02-04T03:19:47;7.32;;;5.90;;
33162;SDS011;29282;45.656;11.302;2024-02-04T03:22:13;7.90;;;5.93;;
33162;SDS011;29282;45.656;11.302;2024-02-04T03:24:42;7.25;;;5.85;;
33162;SDS011;29282;45.656;11.302;2024-02-04T03:27:07;7.25;;;6.28;;
33162;SDS011;29282;45.656;11.302;2024-02-04T03:29:33;6.50;;;5.78;;
33162;SDS011;29282;45.656;11.302;2024-02-04T03:31:58;7.18;;;5.50;;
33162;SDS011;29282;45.656;11.302;2024-02-04T03:34:24;7.55;;;6.10;;
33162;SDS011;29282;45.656;11.302;2024-02-04T03:36:49;8.35;;;6.05;;
33162;SDS011;29282;45.656;11.302;2024-02-04T03:39:15;6.82;;;6.03;;
33162;SDS011;29282;45.656;11.302;2024-02-04T03:41:40;7.22;;;5.70;;
33162;SDS011;29282;45.656;11.302;2024-02-04T03:44:06;6.90;;;5.85;;
33162;SDS011;29282;45.656;11.302;2024-02-04T03:46:31;6.28;;;5.65;;
33162;SDS011;29282;45.656;11.302;2024-02-04T03:48:57;7.22;;;6.18;;
33162;SDS011;29282;45.656;11.302;2024-02-04T03:51:24;6.20;;;5.35;;
33162;SDS011;29282;45.656;11.302;2024-02-04T03:53:50;6.75;;;5.60;;
33162;SDS011;29282;45.656;11.302;2024-02-04T03:56:16;7.40;;;5.70;;
33162;SDS011;29282;45.656;11.302;2024-02-04T03:58:41;7.28;;;5.50;;
33162;SDS011;29282;45.656;11.302;2024-02-04T04:01:10;7.65;;;6.13;;
33162;SDS011;29282;45.656;11.302;2024-02-04T04:03:40;6.78;;;5.53;;
33162;SDS011;29282;45.656;11.302;2024-02-04T04:06:06;6.30;;;5.45;;
33162;SDS011;29282;45.656;11.302;2024-02-04T04:08:35;6.00;;;5.40;;
33162;SDS011;29282;45.656;11.302;2024-02-04T04:11:01;6.10;;;5.35;;
33162;SDS011;29282;45.656;11.302;2024-02-04T04:13:27;6.90;;;5.68;;
33162;SDS011;29282;45.656;11.302;2024-02-04T04:15:53;6.30;;;5.15;;
33162;SDS011;29282;45.656;11.302;2024-02-04T04:18:19;6.32;;;4.88;;
33162;SDS011;29282;45.656;11.302;2024-02-04T04:20:45;7.55;;;5.78;;
33162;SDS011;29282;45.656;11.302;2024-02-04T04:23:11;8.30;;;5.82;;
33162;SDS011;29282;45.656;11.302;2024-02-04T04:25:37;6.03;;;5.38;;
33162;SDS011;29282;45.656;11.302;2024-02-04T04:28:03;5.45;;;4.93;;
33162;SDS011;29282;45.656;11.302;2024-02-04T04:30:29;6.50;;;5.50;;
33162;SDS011;29282;45.656;11.302;2024-02-04T04:32:55;6.70;;;5.50;;
33162;SDS011;29282;45.656;11.302;2024-02-04T04:35:21;6.15;;;5.40;;
33162;SDS011;29282;45.656;11.302;2024-02-04T04:37:46;6.25;;;5.35;;
33162;SDS011;29282;45.656;11.302;2024-02-04T04:40:12;6.70;;;5.35;;
33162;SDS011;29282;45.656;11.302;2024-02-04T04:42:38;6.38;;;5.18;;
33162;SDS011;29282;45.656;11.302;2024-02-04T04:45:03;5.78;;;5.18;;
33162;SDS011;29282;45.656;11.302;2024-02-04T04:47:29;8.57;;;5.75;;
33162;SDS011;29282;45.656;11.302;2024-02-04T04:49:55;7.38;;;5.57;;
33162;SDS011;29282;45.656;11.302;2024-02-04T04:52:20;5.97;;;5.13;;
33162;SDS011;29282;45.656;11.302;2024-02-04T04:54:46;6.28;;;5.13;;
33162;SDS011;29282;45.656;11.302;2024-02-04T04:57:11;6.22;;;5.53;;
33162;SDS011;29282;45.656;11.302;2024-02-04T04:59:37;6.65;;;5.47;;
33162;SDS011;29282;45.656;11.302;2024-02-04T05:02:05;6.30;;;5.40;;
33162;SDS011;29282;45.656;11.302;2024-02-04T05:04:31;5.90;;;4.55;;
33162;SDS011;29282;45.656;11.302;2024-02-04T05:06:56;6.75;;;5.35;;
33162;SDS011;29282;45.656;11.302;2024-02-04T05:09:22;6.55;;;5.30;;
33162;SDS011;29282;45.656;11.302;2024-02-04T05:11:47;5.57;;;4.72;;
33162;SDS011;29282;45.656;11.302;2024-02-04T05:14:13;5.95;;;5.20;;
33162;SDS011;29282;45.656;11.302;2024-02-04T05:16:38;7.50;;;5.13;;
33162;SDS011;29282;45.656;11.302;2024-02-04T05:19:04;6.47;;;5.28;;
33162;SDS011;29282;45.656;11.302;2024-02-04T05:21:30;5.65;;;4.90;;
33162;SDS011;29282;45.656;11.302;2024-02-04T05:23:55;6.10;;;5.43;;
33162;SDS011;29282;45.656;11.302;2024-02-04T05:26:21;5.75;;;5.00;;
33162;SDS011;29282;45.656;11.302;2024-02-04T05:28:46;5.63;;;4.93;;
33162;SDS011;29282;45.656;11.302;2024-02-04T05:31:12;5.75;;;5.15;;
33162;SDS011;29282;45.656;11.302;2024-02-04T05:33:37;6.18;;;4.72;;
33162;SDS011;29282;45.656;11.302;2024-02-04T05:36:03;6.15;;;5.45;;
33162;SDS011;29282;45.656;11.302;2024-02-04T05:38:29;5.47;;;4.80;;
33162;SDS011;29282;45.656;11.302;2024-02-04T05:40:55;6.82;;;5.40;;
33162;SDS011;29282;45.656;11.302;2024-02-04T05:43:21;5.75;;;5.15;;
33162;SDS011;29282;45.656;11.302;2024-02-04T05:45:46;6.68;;;5.00;;
33162;SDS011;29282;45.656;11.302;2024-02-04T05:48:12;5.30;;;4.80;;
33162;SDS011;29282;45.656;11.302;2024-02-04T05:50:38;5.63;;;4.90;;
33162;SDS011;29282;45.656;11.302;2024-02-04T05:53:04;5.68;;;4.85;;
33162;SDS011;29282;45.656;11.302;2024-02-04T05:55:29;5.75;;;5.15;;
33162;SDS011;29282;45.656;11.302;2024-02-04T05:57:55;5.88;;;5.28;;
33162;SDS011;29282;45.656;11.302;2024-02-04T06:00:21;6.20;;;4.97;;
33162;SDS011;29282;45.656;11.302;2024-02-04T06:02:46;5.35;;;4.80;;
33162;SDS011;29282;45.656;11.302;2024-02-04T06:05:13;5.65;;;4.63;;
33162;SDS011;29282;45.656;11.302;2024-02-04T06:07:39;5.78;;;4.47;;
33162;SDS011;29282;45.656;11.302;2024-02-04T06:10:08;7.22;;;5.25;;
33162;SDS011;29282;45.656;11.302;2024-02-04T06:12:34;5.45;;;4.95;;
33162;SDS011;29282;45.656;11.302;2024-02-04T06:14:59;6.03;;;5.10;;
33162;SDS011;29282;45.656;11.302;2024-02-04T06:17:25;5.15;;;4.57;;
33162;SDS011;29282;45.656;11.302;2024-02-04T06:19:50;6.47;;;5.18;;
33162;SDS011;29282;45.656;11.302;2024-02-04T06:22:16;5.13;;;4.63;;
33162;SDS011;29282;45.656;11.302;2024-02-04T06:24:41;5.53;;;4.72;;
33162;SDS011;29282;45.656;11.302;2024-02-04T06:27:10;5.10;;;4.60;;
33162;SDS011;29282;45.656;11.302;2024-02-04T06:29:36;6.05;;;5.00;;
33162;SDS011;29282;45.656;11.302;2024-02-04T06:32:04;5.72;;;4.78;;
33162;SDS011;29282;45.656;11.302;2024-02-04T06:34:30;6.47;;;4.53;;
33162;SDS011;29282;45.656;11.302;2024-02-04T06:36:55;4.60;;;4.20;;
33162;SDS011;29282;45.656;11.302;2024-02-04T06:39:21;5.88;;;5.20;;
33162;SDS011;29282;45.656;11.302;2024-02-04T06:41:49;5.88;;;5.00;;
33162;SDS011;29282;45.656;11.302;2024-02-04T06:44:14;5.25;;;4.75;;
33162;SDS011;29282;45.656;11.302;2024-02-04T06:46:40;5.05;;;4.55;;
33162;SDS011;29282;45.656;11.302;2024-02-04T06:49:06;5.78;;;4.60;;
33162;SDS011;29282;45.656;11.302;2024-02-04T06:51:32;5.55;;;4.78;;
33162;SDS011;29282;45.656;11.302;2024-02-04T06:53:57;5.47;;;4.32;;
33162;SDS011;29282;45.656;11.302;2024-02-04T06:56:22;5.68;;;4.82;;
33162;SDS011;29282;45.656;11.302;2024-02-04T06:58:48;4.82;;;4.32;;
33162;SDS011;29282;45.656;11.302;2024-02-04T07:01:14;5.10;;;4.55;;
33162;SDS011;29282;45.656;11.302;2024-02-04T07:03:39;6.32;;;5.00;;
33162;SDS011;29282;45.656;11.302;2024-02-04T07:06:05;4.95;;;4.40;;
33162;SDS011;29282;45.656;11.302;2024-02-04T07:08:31;5.68;;;4.68;;
33162;SDS011;29282;45.656;11.302;2024-02-04T07:10:56;6.13;;;4.70;;
33162;SDS011;29282;45.656;11.302;2024-02-04T07:13:22;5.00;;;4.50;;
33162;SDS011;29282;45.656;11.302;2024-02-04T07:15:47;5.18;;;4.65;;
33162;SDS011;29282;45.656;11.302;2024-02-04T07:18:13;5.00;;;4.47;;
33162;SDS011;29282;45.656;11.302;2024-02-04T07:20:38;4.97;;;4.47;;
33162;SDS011;29282;45.656;11.302;2024-02-04T07:23:04;5.22;;;4.50;;
33162;SDS011;29282;45.656;11.302;2024-02-04T07:25:30;5.85;;;4.47;;
33162;SDS011;29282;45.656;11.302;2024-02-04T07:28:00;5.65;;;4.55;;
33162;SDS011;29282;45.656;11.302;2024-02-04T07:30:26;5.00;;;4.50;;
33162;SDS011;29282;45.656;11.302;2024-02-04T07:32:54;5.75;;;4.78;;
33162;SDS011;29282;45.656;11.302;2024-02-04T07:35:19;5.13;;;4.55;;
33162;SDS011;29282;45.656;11.302;2024-02-04T07:37:45;5.72;;;4.65;;
33162;SDS011;29282;45.656;11.302;2024-02-04T07:40:11;6.22;;;4.50;;
33162;SDS011;29282;45.656;11.302;2024-02-04T07:42:36;6.03;;;4.97;;
33162;SDS011;29282;45.656;11.302;2024-02-04T07:45:02;7.40;;;4.40;;
33162;SDS011;29282;45.656;11.302;2024-02-04T07:47:33;5.90;;;4.18;;
33162;SDS011;29282;45.656;11.302;2024-02-04T07:49:59;6.38;;;4.50;;
33162;SDS011;29282;45.656;11.302;2024-02-04T07:52:25;5.90;;;4.85;;
33162;SDS011;29282;45.656;11.302;2024-02-04T07:54:50;7.00;;;4.65;;
33162;SDS011;29282;45.656;11.302;2024-02-04T07:57:15;5.25;;;4.25;;
33162;SDS011;29282;45.656;11.302;2024-02-04T07:59:41;5.20;;;4.20;;
33162;SDS011;29282;45.656;11.302;2024-02-04T08:02:07;6.30;;;3.90;;
33162;SDS011;29282;45.656;11.302;2024-02-04T08:04:33;4.63;;;4.10;;
33162;SDS011;29282;45.656;11.302;2024-02-04T08:06:59;6.20;;;4.00;;
33162;SDS011;29282;45.656;11.302;2024-02-04T08:09:24;4.65;;;3.85;;
33162;SDS011;29282;45.656;11.302;2024-02-04T08:11:50;8.13;;;4.28;;
33162;SDS011;29282;45.656;11.302;2024-02-04T08:14:18;5.28;;;4.20;;
33162;SDS011;29282;45.656;11.302;2024-02-04T08:16:43;4.95;;;4.35;;
33162;SDS011;29282;45.656;11.302;2024-02-04T08:19:12;6.20;;;3.78;;
33162;SDS011;29282;45.656;11.302;2024-02-04T08:21:38;5.18;;;4.22;;
33162;SDS011;29282;45.656;11.302;2024-02-04T08:24:04;4.93;;;4.30;;
33162;SDS011;29282;45.656;11.302;2024-02-04T08:26:30;4.40;;;3.70;;
33162;SDS011;29282;45.656;11.302;2024-02-04T08:28:55;8.35;;;4.47;;
33162;SDS011;29282;45.656;11.302;2024-02-04T08:31:24;4.47;;;3.90;;
33162;SDS011;29282;45.656;11.302;2024-02-04T08:33:50;5.38;;;3.70;;
33162;SDS011;29282;45.656;11.302;2024-02-04T08:36:15;4.32;;;3.83;;
33162;SDS011;29282;45.656;11.302;2024-02-04T08:38:41;5.50;;;3.88;;
33162;SDS011;29282;45.656;11.302;2024-02-04T08:41:06;4.55;;;3.80;;
33162;SDS011;29282;45.656;11.302;2024-02-04T08:43:32;5.15;;;4.10;;
33162;SDS011;29282;45.656;11.302;2024-02-04T08:45:57;4.75;;;4.03;;
33162;SDS011;29282;45.656;11.302;2024-02-04T08:48:23;5.15;;;3.75;;
33162;SDS011;29282;45.656;11.302;2024-02-04T08:50:48;4.03;;;3.50;;
33162;SDS011;29282;45.656;11.302;2024-02-04T08:53:14;4.43;;;4.00;;
33162;SDS011;29282;45.656;11.302;2024-02-04T08:55:39;4.13;;;3.70;;
33162;SDS011;29282;45.656;11.302;2024-02-04T08:58:05;4.45;;;4.00;;
33162;SDS011;29282;45.656;11.302;2024-02-04T09:00:33;4.55;;;4.05;;
33162;SDS011;29282;45.656;11.302;2024-02-04T09:02:59;4.50;;;4.10;;
33162;SDS011;29282;45.656;11.302;2024-02-04T09:05:25;5.63;;;4.00;;
33162;SDS011;29282;45.656;11.302;2024-02-04T09:07:50;4.03;;;3.60;;
33162;SDS011;29282;45.656;11.302;2024-02-04T09:10:16;5.00;;;3.72;;
33162;SDS011;29282;45.656;11.302;2024-02-04T09:12:42;4.90;;;4.22;;
33162;SDS011;29282;45.656;11.302;2024-02-04T09:15:07;4.65;;;4.07;;
33162;SDS011;29282;45.656;11.302;2024-02-04T09:17:33;5.78;;;3.88;;
33162;SDS011;29282;45.656;11.302;2024-02-04T09:19:59;6.03;;;4.07;;
33162;SDS011;29282;45.656;11.302;2024-02-04T09:22:25;4.72;;;3.95;;
33162;SDS011;29282;45.656;11.302;2024-02-04T09:24:50;4.70;;;4.20;;
33162;SDS011;29282;45.656;11.302;2024-02-04T09:27:16;4.68;;;4.05;;
33162;SDS011;29282;45.656;11.302;2024-02-04T09:29:41;4.68;;;3.90;;
33162;SDS011;29282;45.656;11.302;2024-02-04T09:32:07;4.47;;;4.07;;
33162;SDS011;29282;45.656;11.302;2024-02-04T09:34:33;4.65;;;4.05;;
33162;SDS011;29282;45.656;11.302;2024-02-04T09:36:58;4.68;;;4.05;;
33162;SDS011;29282;45.656;11.302;2024-02-04T09:39:24;5.28;;;4.32;;
33162;SDS011;29282;45.656;11.302;2024-02-04T09:41:50;4.60;;;4.20;;
33162;SDS011;29282;45.656;11.302;2024-02-04T09:44:15;5.88;;;4.50;;
33162;SDS011;29282;45.656;11.302;2024-02-04T09:46:42;5.03;;;4.32;;
33162;SDS011;29282;45.656;11.302;2024-02-04T09:49:08;4.80;;;4.32;;
33162;SDS011;29282;45.656;11.302;2024-02-04T09:51:34;4.65;;;4.22;;
33162;SDS011;29282;45.656;11.302;2024-02-04T09:54:03;4.72;;;4.15;;
33162;SDS011;29282;45.656;11.302;2024-02-04T09:56:31;7.28;;;4.22;;
33162;SDS011;29282;45.656;11.302;2024-02-04T09:58:58;5.63;;;4.78;;
33162;SDS011;29282;45.656;11.302;2024-02-04T10:01:23;5.55;;;4.32;;
33162;SDS011;29282;45.656;11.302;2024-02-04T10:03:52;5.43;;;4.90;;
33162;SDS011;29282;45.656;11.302;2024-02-04T10:06:18;5.60;;;4.72;;
33162;SDS011;29282;45.656;11.302;2024-02-04T10:08:44;7.53;;;5.32;;
33162;SDS011;29282;45.656;11.302;2024-02-04T10:11:11;9.13;;;5.22;;
33162;SDS011;29282;45.656;11.302;2024-02-04T10:13:46;6.68;;;4.78;;
33162;SDS011;29282;45.656;11.302;2024-02-04T10:16:13;7.82;;;5.10;;
33162;SDS011;29282;45.656;11.302;2024-02-04T10:18:42;7.68;;;4.80;;
33162;SDS011;29282;45.656;11.302;2024-02-04T10:21:19;7.10;;;4.75;;
33162;SDS011;29282;45.656;11.302;2024-02-04T10:23:49;6.07;;;5.03;;
33162;SDS011;29282;45.656;11.302;2024-02-04T10:26:17;7.55;;;5.35;;
33162;SDS011;29282;45.656;11.302;2024-02-04T10:28:45;8.05;;;6.00;;
33162;SDS011;29282;45.656;11.302;2024-02-04T10:31:12;7.63;;;5.63;;
33162;SDS011;29282;45.656;11.302;2024-02-04T10:33:37;9.75;;;6.20;;
33162;SDS011;29282;45.656;11.302;2024-02-04T10:36:03;8.18;;;5.82;;
33162;SDS011;29282;45.656;11.302;2024-02-04T10:38:30;11.55;;;6.00;;
33162;SDS011;29282;45.656;11.302;2024-02-04T10:40:56;7.47;;;6.00;;
33162;SDS011;29282;45.656;11.302;2024-02-04T10:43:26;9.70;;;6.32;;
33162;SDS011;29282;45.656;11.302;2024-02-04T10:46:10;10.30;;;6.20;;
33162;SDS011;29282;45.656;11.302;2024-02-04T10:48:38;8.05;;;6.20;;
33162;SDS011;29282;45.656;11.302;2024-02-04T10:51:12;7.72;;;6.32;;
33162;SDS011;29282;45.656;11.302;2024-02-04T10:53:42;8.98;;;6.15;;
33162;SDS011;29282;45.656;11.302;2024-02-04T10:56:19;8.13;;;5.93;;
33162;SDS011;29282;45.656;11.302;2024-02-04T10:58:48;8.23;;;5.53;;
33162;SDS011;29282;45.656;11.302;2024-02-04T11:01:14;10.38;;;5.97;;
33162;SDS011;29282;45.656;11.302;2024-02-04T11:03:40;9.32;;;6.10;;
33162;SDS011;29282;45.656;11.302;2024-02-04T11:06:07;7.55;;;5.97;;
33162;SDS011;29282;45.656;11.302;2024-02-04T11:08:33;8.77;;;6.20;;
33162;SDS011;29282;45.656;11.302;2024-02-04T11:11:00;7.10;;;5.85;;
33162;SDS011;29282;45.656;11.302;2024-02-04T11:13:25;11.18;;;6.65;;
33162;SDS011;29282;45.656;11.302;2024-02-04T11:15:53;8.88;;;6.05;;
33162;SDS011;29282;45.656;11.302;2024-02-04T11:26:32;10.00;;;6.18;;
33162;SDS011;29282;45.656;11.302;2024-02-04T11:28:58;9.00;;;6.05;;
33162;SDS011;29282;45.656;11.302;2024-02-04T11:31:23;8.00;;;6.35;;
33162;SDS011;29282;45.656;11.302;2024-02-04T11:33:53;10.23;;;6.30;;
33162;SDS011;29282;45.656;11.302;2024-02-04T11:36:23;8.88;;;5.75;;
33162;SDS011;29282;45.656;11.302;2024-02-04T11:38:50;7.70;;;6.10;;
33162;SDS011;29282;45.656;11.302;2024-02-04T11:41:23;10.45;;;5.97;;
33162;SDS011;29282;45.656;11.302;2024-02-04T11:43:51;7.32;;;6.13;;
33162;SDS011;29282;45.656;11.302;2024-02-04T11:46:21;9.02;;;6.22;;
33162;SDS011;29282;45.656;11.302;2024-02-04T11:48:53;7.85;;;6.38;;
33162;SDS011;29282;45.656;11.302;2024-02-04T11:51:21;9.63;;;6.13;;
33162;SDS011;29282;45.656;11.302;2024-02-04T11:53:53;7.45;;;5.97;;
33162;SDS011;29282;45.656;11.302;2024-02-04T11:56:19;8.00;;;6.50;;
33162;SDS011;29282;45.656;11.302;2024-02-04T11:58:45;11.75;;;6.55;;
33162;SDS011;29282;45.656;11.302;2024-02-04T12:01:11;7.63;;;6.20;;
33162;SDS011;29282;45.656;11.302;2024-02-04T12:03:37;6.93;;;6.20;;
33162;SDS011;29282;45.656;11.302;2024-02-04T12:06:03;7.82;;;5.90;;
33162;SDS011;29282;45.656;11.302;2024-02-04T12:08:30;7.85;;;6.00;;
33162;SDS011;29282;45.656;11.302;2024-02-04T12:11:00;7.00;;;5.85;;
33162;SDS011;29282;45.656;11.302;2024-02-04T12:13:30;7.03;;;5.57;;
33162;SDS011;29282;45.656;11.302;2024-02-04T12:15:57;8.10;;;6.40;;
33162;SDS011;29282;45.656;11.302;2024-02-04T12:18:22;8.98;;;5.97;;
33162;SDS011;29282;45.656;11.302;2024-02-04T12:20:48;7.32;;;6.50;;
33162;SDS011;29282;45.656;11.302;2024-02-04T12:23:14;8.50;;;6.25;;
33162;SDS011;29282;45.656;11.302;2024-02-04T12:25:41;6.53;;;5.30;;
33162;SDS011;29282;45.656;11.302;2024-02-04T12:28:06;8.00;;;6.20;;
33162;SDS011;29282;45.656;11.302;2024-02-04T12:30:33;6.47;;;5.80;;
33162;SDS011;29282;45.656;11.302;2024-02-04T12:32:59;7.57;;;6.13;;
33162;SDS011;29282;45.656;11.302;2024-02-04T12:35:32;14.32;;;6.32;;
33162;SDS011;29282;45.656;11.302;2024-02-04T12:37:58;10.73;;;6.00;;
33162;SDS011;29282;45.656;11.302;2024-02-04T12:40:25;8.52;;;6.20;;
33162;SDS011;29282;45.656;11.302;2024-02-04T12:43:01;9.40;;;6.25;;
33162;SDS011;29282;45.656;11.302;2024-02-04T12:45:28;15.68;;;6.50;;
33162;SDS011;29282;45.656;11.302;2024-02-04T12:47:55;8.18;;;6.30;;
33162;SDS011;29282;45.656;11.302;2024-02-04T12:50:21;9.25;;;6.20;;
33162;SDS011;29282;45.656;11.302;2024-02-04T12:52:48;9.60;;;6.78;;
33162;SDS011;29282;45.656;11.302;2024-02-04T12:55:23;9.05;;;6.82;;
33162;SDS011;29282;45.656;11.302;2024-02-04T12:58:03;9.13;;;6.97;;
33162;SDS011;29282;45.656;11.302;2024-02-04T13:00:37;12.02;;;7.05;;
33162;SDS011;29282;45.656;11.302;2024-02-04T13:03:04;12.35;;;7.22;;
33162;SDS011;29282;45.656;11.302;2024-02-04T13:05:33;10.85;;;7.18;;
33162;SDS011;29282;45.656;11.302;2024-02-04T13:07:59;12.25;;;8.23;;
33162;SDS011;29282;45.656;11.302;2024-02-04T13:10:30;11.63;;;7.97;;
33162;SDS011;29282;45.656;11.302;2024-02-04T13:13:05;12.57;;;8.85;;
33162;SDS011;29282;45.656;11.302;2024-02-04T13:15:32;11.55;;;7.93;;
33162;SDS011;29282;45.656;11.302;2024-02-04T13:18:10;12.65;;;8.90;;
33162;SDS011;29282;45.656;11.302;2024-02-04T13:20:37;12.82;;;7.72;;
33162;SDS011;29282;45.656;11.302;2024-02-04T13:23:03;9.57;;;6.80;;
33162;SDS011;29282;45.656;11.302;2024-02-04T13:25:31;11.98;;;7.93;;
33162;SDS011;29282;45.656;11.302;2024-02-04T13:27:57;11.32;;;7.63;;
33162;SDS011;29282;45.656;11.302;2024-02-04T13:30:23;9.85;;;7.43;;
33162;SDS011;29282;45.656;11.302;2024-02-04T13:32:48;14.32;;;7.70;;
33162;SDS011;29282;45.656;11.302;2024-02-04T13:35:14;11.90;;;7.50;;
33162;SDS011;29282;45.656;11.302;2024-02-04T13:37:44;13.68;;;7.80;;
33162;SDS011;29282;45.656;11.302;2024-02-04T13:40:19;12.23;;;7.43;;
33162;SDS011;29282;45.656;11.302;2024-02-04T13:42:45;13.43;;;7.70;;
33162;SDS011;29282;45.656;11.302;2024-02-04T13:45:11;12.57;;;8.10;;
33162;SDS011;29282;45.656;11.302;2024-02-04T13:47:41;10.35;;;7.53;;
33162;SDS011;29282;45.656;11.302;2024-02-04T13:50:07;17.42;;;8.55;;
33162;SDS011;29282;45.656;11.302;2024-02-04T13:52:34;17.02;;;8.50;;
33162;SDS011;29282;45.656;11.302;2024-02-04T13:55:00;12.23;;;7.65;;
33162;SDS011;29282;45.656;11.302;2024-02-04T13:57:25;11.68;;;7.57;;
33162;SDS011;29282;45.656;11.302;2024-02-04T13:59:54;13.75;;;8.25;;
33162;SDS011;29282;45.656;11.302;2024-02-04T14:02:19;11.18;;;7.10;;
33162;SDS011;29282;45.656;11.302;2024-02-04T14:04:45;14.02;;;7.70;;
33162;SDS011;29282;45.656;11.302;2024-02-04T14:07:11;12.55;;;7.38;;
33162;SDS011;29282;45.656;11.302;2024-02-04T14:09:37;12.55;;;7.47;;
33162;SDS011;29282;45.656;11.302;2024-02-04T14:12:03;11.30;;;7.35;;
33162;SDS011;29282;45.656;11.302;2024-02-04T14:14:29;11.82;;;7.78;;
33162;SDS011;29282;45.656;11.302;2024-02-04T14:16:55;10.05;;;7.38;;
33162;SDS011;29282;45.656;11.302;2024-02-04T14:19:20;11.55;;;7.70;;
33162;SDS011;29282;45.656;11.302;2024-02-04T14:21:46;11.65;;;7.57;;
33162;SDS011;29282;45.656;11.302;2024-02-04T14:24:11;10.43;;;7.10;;
33162;SDS011;29282;45.656;11.302;2024-02-04T14:26:38;10.82;;;7.50;;
33162;SDS011;29282;45.656;11.302;2024-02-04T14:29:03;10.35;;;7.40;;
33162;SDS011;29282;45.656;11.302;2024-02-04T14:31:29;13.38;;;6.93;;
33162;SDS011;29282;45.656;11.302;2024-02-04T14:33:54;10.43;;;6.78;;
33162;SDS011;29282;45.656;11.302;2024-02-04T14:36:21;14.48;;;7.60;;
33162;SDS011;29282;45.656;11.302;2024-02-04T14:38:46;11.60;;;7.40;;
33162;SDS011;29282;45.656;11.302;2024-02-04T14:41:12;10.05;;;7.18;;